Time;durP1;ratioP1;P1;durP2;ratioP2;P2;SDS_P1;SDS_P2;PMS_P1;PMS_P2;Temp;Humidity;BMP_temperature;BMP_pressure;BME280_temperature;BME280_humidity;BME280_pressure;Samples;Min_cycle;Max_cycle;Signal;HPM_P1;HPM_P2
2022/03/06 00:00:10;;;;;;;25.92;13.07;;;;;;;-6.04;94.57;92983.56;2109586;28;20031;-79
2022/03/06 00:01:11;;;;;;;26.85;13.18;;;;;;;-6.17;96.29;92988.66;2110506;28;20066;-78
2022/03/06 00:02:12;;;;;;;22.30;13.15;;;;;;;-6.20;96.60;92978.13;2105983;28;20074;-80
2022/03/06 00:03:14;;;;;;;25.05;13.30;;;;;;;-6.13;94.91;92983.59;2102126;28;20028;-82
2022/03/06 00:04:15;;;;;;;25.70;11.77;;;;;;;-6.14;95.61;92984.69;2097519;28;20028;-82
2022/03/06 00:05:16;;;;;;;23.33;12.38;;;;;;;-6.23;96.70;92984.72;2093566;28;20824;-78
2022/03/06 00:06:17;;;;;;;22.23;12.60;;;;;;;-6.34;96.91;92980.94;2114526;28;20030;-79
2022/03/06 00:07:18;;;;;;;25.88;12.93;;;;;;;-6.30;97.01;92984.44;2099841;28;20385;-79
2022/03/06 00:08:20;;;;;;;22.75;13.38;;;;;;;-6.40;96.62;92985.56;2087136;28;20150;-79
2022/03/06 00:09:21;;;;;;;23.30;13.35;;;;;;;-6.30;96.04;92986.28;2097545;28;20024;-80
2022/03/06 00:10:24;;;;;;;22.20;13.10;;;;;;;-6.25;95.88;92980.91;2101752;28;20089;-78
2022/03/06 00:11:25;;;;;;;24.70;12.88;;;;;;;-6.30;96.54;92981.09;2087839;28;20087;-82
2022/03/06 00:12:26;;;;;;;23.58;13.20;;;;;;;-6.25;95.96;92986.88;2088694;28;20021;-80
2022/03/06 00:13:26;;;;;;;23.98;13.15;;;;;;;-6.29;96.48;92985.22;2097584;28;20511;-81
2022/03/06 00:14:27;;;;;;;23.42;13.15;;;;;;;-6.25;97.29;92979.06;2092990;28;20029;-81
2022/03/06 00:15:28;;;;;;;24.98;13.25;;;;;;;-6.19;95.68;92982.25;2083318;28;20025;-80
2022/03/06 00:16:29;;;;;;;26.95;14.05;;;;;;;-6.36;95.26;92983.88;2097487;28;20027;-79
2022/03/06 00:17:30;;;;;;;25.80;13.60;;;;;;;-6.42;99.36;92984.34;2105342;28;20124;-81
2022/03/06 00:18:32;;;;;;;21.48;13.23;;;;;;;-6.46;99.44;92983.44;2094795;28;20067;-80
2022/03/06 00:19:33;;;;;;;25.80;14.18;;;;;;;-6.28;98.23;92984.13;2093501;28;20021;-78
2022/03/06 00:20:35;;;;;;;26.98;14.38;;;;;;;-6.40;97.34;92980.38;2100566;28;20020;-82
2022/03/06 00:21:37;;;;;;;27.65;14.65;;;;;;;-6.34;96.53;92975.75;2093193;28;20028;-78
2022/03/06 00:22:38;;;;;;;24.45;14.52;;;;;;;-6.35;96.57;92977.59;2106162;28;20061;-83
2022/03/06 00:23:39;;;;;;;26.83;15.00;;;;;;;-6.36;97.89;92983.13;2105596;28;20618;-81
2022/03/06 00:24:40;;;;;;;27.38;14.35;;;;;;;-6.49;99.07;92982.25;2105457;28;20046;-80
2022/03/06 00:25:41;;;;;;;31.10;14.60;;;;;;;-6.53;99.13;92980.59;2092966;28;20029;-78
2022/03/06 00:26:42;;;;;;;27.90;16.15;;;;;;;-6.54;98.13;92981.63;2093622;28;20025;-80
2022/03/06 00:27:43;;;;;;;27.02;14.68;;;;;;;-6.53;97.80;92985.78;2103033;28;20454;-82
2022/03/06 00:28:44;;;;;;;25.88;14.63;;;;;;;-6.49;97.83;92981.50;2105730;28;20039;-79
2022/03/06 00:29:45;;;;;;;26.25;14.27;;;;;;;-6.23;97.51;92979.53;2105931;28;20031;-82
2022/03/06 00:30:47;;;;;;;26.48;14.70;;;;;;;-6.36;96.91;92976.06;2097372;28;20483;-80
2022/03/06 00:31:48;;;;;;;26.95;14.15;;;;;;;-6.50;97.88;92988.50;2105955;28;20024;-82
2022/03/06 00:32:49;;;;;;;30.77;14.98;;;;;;;-6.59;97.84;92983.31;2100317;28;20052;-81
2022/03/06 00:33:53;;;;;;;29.67;15.50;;;;;;;-6.70;97.80;92979.56;2092596;28;20107;-80
2022/03/06 00:34:54;;;;;;;26.48;14.38;;;;;;;-6.56;98.17;92968.97;2100683;28;20068;-82
2022/03/06 00:35:55;;;;;;;25.83;14.93;;;;;;;-6.48;97.71;92975.97;2096652;28;20024;-77
2022/03/06 00:36:56;;;;;;;24.65;13.73;;;;;;;-6.56;97.88;92978.59;2102414;28;20395;-82
2022/03/06 00:37:57;;;;;;;26.75;14.70;;;;;;;-6.66;98.71;92977.88;2114503;28;20047;-81
2022/03/06 00:38:58;;;;;;;24.98;14.55;;;;;;;-6.66;98.75;92977.13;2102198;28;20057;-80
2022/03/06 00:40:00;;;;;;;28.30;15.52;;;;;;;-6.65;96.91;92978.63;2087189;28;20032;-80
2022/03/06 00:41:00;;;;;;;27.48;15.05;;;;;;;-6.49;96.37;92971.84;2097560;28;20031;-80
2022/03/06 00:42:04;;;;;;;26.85;14.43;;;;;;;-6.51;97.46;92973.22;2091289;28;20115;-81
2022/03/06 00:43:05;;;;;;;26.17;14.30;;;;;;;-6.48;97.81;92968.16;2097667;28;20082;-80
2022/03/06 00:44:06;;;;;;;26.92;13.55;;;;;;;-6.46;97.17;92970.44;2095369;28;20098;-79
2022/03/06 00:45:07;;;;;;;27.13;15.10;;;;;;;-6.61;98.03;92959.50;2111679;28;20027;-80
2022/03/06 00:46:08;;;;;;;25.20;13.90;;;;;;;-6.64;98.16;92969.75;2097460;28;20028;-81
2022/03/06 00:47:09;;;;;;;25.83;13.55;;;;;;;-6.54;96.44;92961.63;2095209;28;20021;-79
2022/03/06 00:48:10;;;;;;;26.83;13.38;;;;;;;-6.62;97.91;92968.38;2102867;28;20039;-78
2022/03/06 00:49:11;;;;;;;26.08;13.70;;;;;;;-6.60;98.11;92963.63;2095476;28;20028;-78
2022/03/06 00:50:12;;;;;;;21.88;13.35;;;;;;;-6.61;97.36;92964.69;2095676;28;20017;-80
2022/03/06 00:51:14;;;;;;;24.48;13.13;;;;;;;-6.60;97.07;92958.41;2087523;28;20142;-80
2022/03/06 00:52:15;;;;;;;23.83;13.63;;;;;;;-6.67;96.36;92965.16;2099997;28;20024;-78
2022/03/06 00:53:16;;;;;;;23.80;13.93;;;;;;;-6.56;96.71;92957.81;2098423;28;20136;-81
2022/03/06 00:54:17;;;;;;;23.92;12.77;;;;;;;-6.54;97.14;92961.63;2092157;28;20021;-81
2022/03/06 00:55:18;;;;;;;25.42;13.98;;;;;;;-6.62;97.98;92959.81;2090472;28;20116;-80
2022/03/06 00:56:19;;;;;;;22.92;12.50;;;;;;;-6.67;98.47;92963.34;2097346;28;20020;-80
2022/03/06 00:57:20;;;;;;;23.73;13.38;;;;;;;-6.65;98.17;92963.78;2096658;28;20024;-79
2022/03/06 00:58:21;;;;;;;23.67;12.73;;;;;;;-6.81;99.62;92969.81;2089156;28;20025;-81
2022/03/06 00:59:22;;;;;;;22.55;12.27;;;;;;;-6.83;99.08;92966.78;2107447;28;20064;-80
2022/03/06 01:00:23;;;;;;;22.08;12.15;;;;;;;-6.68;97.94;92967.00;2100361;28;20024;-80
2022/03/06 01:01:24;;;;;;;23.45;12.95;;;;;;;-6.59;97.33;92959.94;2101266;28;20453;-79
2022/03/06 01:02:27;;;;;;;26.15;12.63;;;;;;;-6.77;97.83;92966.28;2101364;28;20021;-77
2022/03/06 01:03:28;;;;;;;19.75;11.43;;;;;;;-6.83;100.00;92966.78;2093732;28;20409;-82
2022/03/06 01:04:29;;;;;;;21.10;12.45;;;;;;;-6.85;100.00;92961.88;2091771;28;20029;-79
2022/03/06 01:05:30;;;;;;;23.52;13.30;;;;;;;-6.68;100.00;92958.44;2089075;28;20877;-80
2022/03/06 01:06:31;;;;;;;22.02;12.32;;;;;;;-6.81;98.71;92954.97;2093420;28;20020;-80
2022/03/06 01:07:33;;;;;;;26.20;12.90;;;;;;;-6.81;98.95;92960.19;2097230;28;20409;-82
2022/03/06 01:08:34;;;;;;;25.10;13.55;;;;;;;-6.92;100.00;92951.97;2087591;28;20025;-81
2022/03/06 01:09:35;;;;;;;21.17;12.25;;;;;;;-6.79;99.62;92958.03;2083311;28;20108;-81
2022/03/06 01:10:37;;;;;;;24.52;12.98;;;;;;;-6.80;100.00;92955.75;2105013;28;20032;-81
2022/03/06 01:11:38;;;;;;;25.52;13.98;;;;;;;-6.84;99.47;92960.81;2109225;28;20596;-78
2022/03/06 01:12:39;;;;;;;22.73;12.38;;;;;;;-6.75;98.87;92964.16;2102474;28;20031;-81
2022/03/06 01:13:40;;;;;;;22.40;11.70;;;;;;;-6.70;98.40;92950.22;2094777;28;20072;-80
2022/03/06 01:14:41;;;;;;;22.17;11.98;;;;;;;-6.75;97.54;92953.00;2101336;28;20047;-81
2022/03/06 01:15:42;;;;;;;24.55;12.77;;;;;;;-6.79;98.93;92955.44;2103478;28;20024;-82
2022/03/06 01:16:43;;;;;;;22.30;12.63;;;;;;;-6.86;99.62;92952.56;2086859;28;20325;-81
2022/03/06 01:17:44;;;;;;;25.60;12.27;;;;;;;-6.92;100.00;92948.63;2101252;28;20032;-81
2022/03/06 01:18:45;;;;;;;21.58;11.77;;;;;;;-6.91;100.00;92947.53;2099571;28;20025;-81
2022/03/06 01:19:47;;;;;;;23.20;12.88;;;;;;;-6.99;99.88;92954.28;2088327;28;20052;-81
2022/03/06 01:20:49;;;;;;;26.23;13.98;;;;;;;-7.04;100.00;92953.69;2093530;28;20031;-78
2022/03/06 01:21:50;;;;;;;22.40;12.35;;;;;;;-6.90;99.99;92952.41;2094579;28;20036;-81
2022/03/06 01:22:51;;;;;;;21.95;12.25;;;;;;;-6.68;98.39;92948.06;2097834;28;20040;-81
2022/03/06 01:23:52;;;;;;;25.70;12.30;;;;;;;-6.92;98.45;92944.19;2102368;28;20789;-81
2022/03/06 01:24:53;;;;;;;27.92;12.52;;;;;;;-7.10;100.00;92950.50;2087165;28;20029;-78
2022/03/06 01:25:54;;;;;;;27.92;13.02;;;;;;;-7.03;100.00;92950.75;2088131;28;20020;-78
2022/03/06 01:26:55;;;;;;;25.25;12.00;;;;;;;-6.94;99.78;92954.09;2092353;28;20531;-81
2022/03/06 01:27:56;;;;;;;22.50;12.02;;;;;;;-6.94;100.00;92948.16;2102706;28;20031;-81
2022/03/06 01:28:57;;;;;;;26.25;12.43;;;;;;;-6.96;100.00;92951.06;2095105;28;20494;-82
2022/03/06 01:29:58;;;;;;;24.48;13.52;;;;;;;-6.93;100.00;92957.47;2105063;28;20062;-80
2022/03/06 01:31:00;;;;;;;23.52;12.43;;;;;;;-7.02;99.56;92949.72;2090365;28;20043;-81
2022/03/06 01:32:00;;;;;;;21.73;12.18;;;;;;;-7.05;99.85;92957.34;2088358;28;20032;-78
2022/03/06 01:33:02;;;;;;;26.38;12.60;;;;;;;-7.06;100.00;92946.22;2093674;28;20029;-78
2022/03/06 01:34:03;;;;;;;22.98;12.38;;;;;;;-7.03;99.59;92957.78;2094708;28;20029;-78
2022/03/06 01:35:05;;;;;;;26.63;13.20;;;;;;;-6.86;99.99;92953.31;2094607;28;20111;-79
2022/03/06 01:36:06;;;;;;;23.13;12.80;;;;;;;-6.95;99.08;92951.81;2093952;28;20036;-78
2022/03/06 01:37:07;;;;;;;23.17;11.77;;;;;;;-6.98;99.90;92952.44;2086401;28;20083;-81
2022/03/06 01:38:08;;;;;;;25.50;12.45;;;;;;;-7.04;99.34;92946.66;2093221;28;20028;-80
2022/03/06 01:39:09;;;;;;;23.50;12.23;;;;;;;-7.08;99.72;92944.97;2093712;28;20087;-78
2022/03/06 01:40:11;;;;;;;22.60;11.88;;;;;;;-7.07;98.56;92944.66;2104185;28;20062;-81
2022/03/06 01:41:12;;;;;;;22.00;11.68;;;;;;;-7.04;98.83;92945.88;2091842;28;20103;-82
2022/03/06 01:42:13;;;;;;;21.58;12.13;;;;;;;-7.04;100.00;92946.66;2095048;28;20025;-81
2022/03/06 01:43:14;;;;;;;23.52;12.25;;;;;;;-7.08;99.82;92947.56;2101117;28;20114;-80
2022/03/06 01:44:15;;;;;;;22.73;11.65;;;;;;;-7.04;100.00;92949.25;2102474;28;20023;-80
2022/03/06 01:45:20;;;;;;;22.83;12.18;;;;;;;-7.04;99.94;92951.84;2094506;28;20083;-78
2022/03/06 01:46:21;;;;;;;22.23;11.70;;;;;;;-7.10;99.33;92956.44;2087603;28;20159;-80
2022/03/06 01:47:34;;;;;;;23.55;12.35;;;;;;;-7.14;100.00;92955.53;2088459;28;20032;-81
2022/03/06 01:48:35;;;;;;;25.08;12.40;;;;;;;-7.08;99.04;92956.13;2099477;28;20024;-80
2022/03/06 01:49:36;;;;;;;23.48;12.30;;;;;;;-7.14;99.37;92955.53;2113768;28;20051;-81
2022/03/06 01:50:38;;;;;;;23.00;12.25;;;;;;;-7.21;100.00;92957.06;2113671;28;20392;-81
2022/03/06 01:51:39;;;;;;;24.55;12.75;;;;;;;-7.20;100.00;92961.97;2105234;28;20034;-81
2022/03/06 01:52:41;;;;;;;21.38;12.82;;;;;;;-7.10;100.00;92961.66;2107491;28;20024;-79
2022/03/06 01:53:42;;;;;;;24.40;12.02;;;;;;;-7.19;100.00;92963.50;2105175;28;20020;-80
2022/03/06 01:54:43;;;;;;;24.08;12.82;;;;;;;-7.29;100.00;92969.00;2095466;28;20055;-81
2022/03/06 01:55:44;;;;;;;22.95;12.18;;;;;;;-7.26;100.00;92963.19;2099010;28;20027;-83
2022/03/06 01:56:45;;;;;;;24.27;13.15;;;;;;;-7.32;100.00;92967.03;2094892;28;20035;-79
2022/03/06 01:57:47;;;;;;;23.75;12.43;;;;;;;-7.30;100.00;92959.69;2102038;28;20058;-82
2022/03/06 01:58:48;;;;;;;25.00;12.82;;;;;;;-7.31;100.00;92968.53;2095896;28;20361;-83
2022/03/06 01:59:49;;;;;;;22.10;12.52;;;;;;;-7.37;100.00;92962.00;2094761;28;20369;-82
2022/03/06 02:00:50;;;;;;;24.83;12.05;;;;;;;-7.22;100.00;92965.94;2095373;28;20390;-80
2022/03/06 02:01:51;;;;;;;24.08;12.32;;;;;;;-7.22;100.00;92964.09;2093964;28;20107;-80
2022/03/06 02:02:53;;;;;;;23.92;12.55;;;;;;;-7.17;100.00;92961.34;2092532;28;20017;-77
2022/03/06 02:03:54;;;;;;;24.63;13.25;;;;;;;-7.29;100.00;92958.59;2090618;28;20516;-80
2022/03/06 02:04:56;;;;;;;24.20;12.75;;;;;;;-7.29;100.00;92961.19;2094720;28;20050;-81
2022/03/06 02:05:57;;;;;;;24.27;11.90;;;;;;;-7.28;100.00;92965.34;2086768;28;20116;-81
2022/03/06 02:06:59;;;;;;;21.48;12.18;;;;;;;-7.29;100.00;92957.84;2092698;28;20433;-79
2022/03/06 02:08:00;;;;;;;24.05;12.90;;;;;;;-7.31;100.00;92962.59;2101528;28;20035;-80
2022/03/06 02:09:01;;;;;;;27.83;12.88;;;;;;;-7.31;100.00;92958.16;2100620;28;20032;-81
2022/03/06 02:12:18;;;;;;;20.27;10.57;;;;;;;-7.23;100.00;92954.78;2132961;27;20193;-80
2022/03/06 02:13:06;;;;;;;25.35;12.85;;;;;;;-7.08;100.00;92950.94;2123486;27;20139;-80
2022/03/06 02:14:07;;;;;;;23.77;12.13;;;;;;;-7.21;100.00;92952.63;2122794;27;21023;-80
2022/03/06 02:15:11;;;;;;;25.95;13.55;;;;;;;-7.28;100.00;92952.38;2110288;28;20035;-83
2022/03/06 02:16:13;;;;;;;24.83;12.00;;;;;;;-7.31;100.00;92954.81;2114391;27;20031;-79
2022/03/06 02:17:14;;;;;;;25.38;13.00;;;;;;;-7.40;100.00;92949.63;2122187;27;20563;-80
2022/03/06 02:18:15;;;;;;;26.65;13.13;;;;;;;-7.51;100.00;92951.00;2109194;28;20561;-77
2022/03/06 02:19:16;;;;;;;25.00;13.07;;;;;;;-7.41;100.00;92948.09;2101160;28;20032;-80
2022/03/06 02:20:21;;;;;;;25.40;12.98;;;;;;;-7.34;100.00;92953.56;2109071;28;20047;-78
2022/03/06 02:21:22;;;;;;;24.17;11.73;;;;;;;-7.36;100.00;92950.53;2109175;27;20904;-79
2022/03/06 02:22:28;;;;;;;26.23;12.85;;;;;;;-7.35;100.00;92952.06;2119898;27;20038;-81
2022/03/06 02:23:32;;;;;;;23.25;12.55;;;;;;;-7.28;100.00;92952.38;2112443;28;20027;-78
2022/03/06 02:24:33;;;;;;;26.75;13.20;;;;;;;-7.38;100.00;92958.63;2101037;28;20041;-80
2022/03/06 02:25:35;;;;;;;23.80;12.25;;;;;;;-7.35;100.00;92962.44;2104197;28;20035;-82
2022/03/06 02:26:38;;;;;;;23.52;12.02;;;;;;;-7.46;100.00;92956.03;2103223;28;20419;-80
2022/03/06 02:27:39;;;;;;;25.83;13.00;;;;;;;-7.49;100.00;92962.59;2109659;27;20028;-81
2022/03/06 02:28:42;;;;;;;21.77;11.98;;;;;;;-7.53;100.00;92959.09;2120655;27;20019;-83
2022/03/06 02:29:43;;;;;;;24.30;13.13;;;;;;;-7.60;100.00;92959.53;2112245;28;20032;-82
2022/03/06 02:30:44;;;;;;;24.27;12.40;;;;;;;-7.49;100.00;92957.41;2112024;27;20572;-83
2022/03/06 02:31:45;;;;;;;24.55;12.38;;;;;;;-7.50;100.00;92950.72;2108126;28;20027;-81
2022/03/06 02:32:48;;;;;;;23.60;12.63;;;;;;;-7.36;100.00;92951.28;2110763;28;20042;-81
2022/03/06 02:33:49;;;;;;;23.45;12.77;;;;;;;-7.51;100.00;92943.97;2111036;28;20054;-79
2022/03/06 02:34:51;;;;;;;22.80;12.85;;;;;;;-7.64;100.00;92955.28;2103365;28;20102;-81
2022/03/06 02:35:53;;;;;;;25.13;13.02;;;;;;;-7.62;100.00;92959.09;2109863;28;20384;-84
2022/03/06 02:36:54;;;;;;;24.38;13.38;;;;;;;-7.63;100.00;92955.00;2108259;28;20102;-83
2022/03/06 02:37:55;;;;;;;28.13;12.90;;;;;;;-7.51;100.00;92953.59;2118699;27;20516;-80
2022/03/06 02:38:56;;;;;;;23.98;13.18;;;;;;;-7.39;100.00;92953.75;2107506;28;20478;-83
2022/03/06 02:40:02;;;;;;;23.85;12.15;;;;;;;-7.47;100.00;92962.28;2112052;28;20465;-81
2022/03/06 02:41:03;;;;;;;21.98;11.57;;;;;;;-7.52;100.00;92957.25;2109551;28;20023;-79
2022/03/06 02:42:05;;;;;;;24.95;12.60;;;;;;;-7.54;100.00;92951.63;2114690;27;20073;-79
2022/03/06 02:43:07;;;;;;;27.63;12.95;;;;;;;-7.45;100.00;92947.94;2124328;27;20027;-81
2022/03/06 02:44:08;;;;;;;22.00;12.82;;;;;;;-7.38;100.00;92947.47;2107235;28;20392;-83
2022/03/06 02:45:17;;;;;;;23.25;13.30;;;;;;;-7.45;100.00;92953.16;2104378;28;20466;-80
2022/03/06 02:46:18;;;;;;;27.27;12.38;;;;;;;-7.42;100.00;92951.75;2104716;28;20032;-80
2022/03/06 02:47:20;;;;;;;23.00;11.73;;;;;;;-7.46;100.00;92956.03;2103338;28;20021;-82
2022/03/06 02:48:21;;;;;;;21.85;11.90;;;;;;;-7.57;100.00;92950.41;2108714;28;20031;-82
2022/03/06 02:49:22;;;;;;;23.45;13.20;;;;;;;-7.66;100.00;92958.19;2105754;28;20051;-82
2022/03/06 02:50:28;;;;;;;26.13;13.00;;;;;;;-7.67;100.00;92958.50;2101918;28;20059;-83
2022/03/06 02:51:29;;;;;;;26.38;12.40;;;;;;;-7.58;100.00;92963.69;2102726;28;20504;-80
2022/03/06 02:52:30;;;;;;;27.77;13.23;;;;;;;-7.64;100.00;92955.28;2101268;28;20032;-81
2022/03/06 02:53:30;;;;;;;24.35;12.45;;;;;;;-7.63;100.00;92957.59;2113414;28;20078;-80
2022/03/06 02:54:31;;;;;;;22.15;12.18;;;;;;;-7.53;100.00;92964.28;2112058;28;20116;-82
2022/03/06 02:55:33;;;;;;;21.17;12.20;;;;;;;-7.51;100.00;92953.59;2110000;28;20016;-83
2022/03/06 02:56:34;;;;;;;24.05;13.00;;;;;;;-7.56;100.00;92951.91;2100061;28;20028;-83
2022/03/06 02:57:35;;;;;;;21.17;12.38;;;;;;;-7.58;100.00;92958.50;2110211;28;20027;-83
2022/03/06 02:58:36;;;;;;;24.15;13.70;;;;;;;-7.58;100.00;92953.31;2109807;28;20086;-83
2022/03/06 02:59:37;;;;;;;23.33;12.52;;;;;;;-7.53;100.00;92945.38;2109449;28;20040;-81
2022/03/06 03:00:39;;;;;;;24.80;12.93;;;;;;;-7.66;100.00;92952.25;2107142;28;20055;-81
2022/03/06 03:01:41;;;;;;;25.95;11.95;;;;;;;-7.79;100.00;92955.75;2104243;28;20188;-81
2022/03/06 03:02:42;;;;;;;23.38;12.65;;;;;;;-7.69;100.00;92945.81;2111918;27;20020;-81
2022/03/06 03:03:44;;;;;;;23.08;12.75;;;;;;;-7.60;100.00;92956.19;2113839;28;20090;-82
2022/03/06 03:04:45;;;;;;;24.63;12.02;;;;;;;-7.56;100.00;92953.75;2115982;28;20065;-80
2022/03/06 03:05:46;;;;;;;22.27;11.57;;;;;;;-7.59;100.00;92955.16;2103252;28;20028;-79
2022/03/06 03:06:50;;;;;;;19.90;11.82;;;;;;;-7.60;100.00;92956.94;2095265;28;20025;-79
2022/03/06 03:07:51;;;;;;;23.35;12.38;;;;;;;-7.63;100.00;92954.22;2104209;28;20031;-80
2022/03/06 03:08:52;;;;;;;21.52;12.20;;;;;;;-7.67;100.00;92955.91;2111568;28;20011;-81
2022/03/06 03:09:53;;;;;;;24.10;12.30;;;;;;;-7.69;100.00;92956.19;2112127;28;20027;-78
2022/03/06 03:10:54;;;;;;;25.65;12.27;;;;;;;-7.75;100.00;92957.44;2097267;28;20148;-79
2022/03/06 03:12:02;;;;;;;23.60;12.85;;;;;;;-7.82;100.00;92954.50;2102804;28;20098;-81
2022/03/06 03:13:11;;;;;;;24.98;12.40;;;;;;;-7.73;100.00;92957.88;2104247;28;20024;-79
2022/03/06 03:14:53;;;;;;;24.55;11.98;;;;;;;-7.76;100.00;92958.50;2094347;28;20020;-78
2022/03/06 03:16:02;;;;;;;27.52;10.52;;;;;;;-7.69;100.00;92958.03;2114503;28;20031;-79
2022/03/06 03:17:04;;;;;;;23.90;11.82;;;;;;;-7.60;100.00;92949.16;2100224;28;20069;-81
2022/03/06 03:18:05;;;;;;;20.67;11.45;;;;;;;-7.57;100.00;92957.44;2099752;28;20389;-80
2022/03/06 03:19:06;;;;;;;21.48;12.23;;;;;;;-7.57;100.00;92954.81;2110058;28;20031;-78
2022/03/06 03:20:08;;;;;;;25.05;12.90;;;;;;;-7.64;100.00;92950.09;2104546;28;20441;-79
2022/03/06 03:21:09;;;;;;;26.63;13.13;;;;;;;-7.70;100.00;92953.91;2096859;28;20421;-80
2022/03/06 03:22:10;;;;;;;22.45;12.07;;;;;;;-7.72;100.00;92956.81;2099013;28;20028;-78
2022/03/06 03:23:11;;;;;;;26.40;13.02;;;;;;;-7.58;100.00;92959.25;2089167;28;20059;-78
2022/03/06 03:24:12;;;;;;;22.70;12.80;;;;;;;-7.57;100.00;92960.03;2088932;28;20413;-80
2022/03/06 03:25:13;;;;;;;28.40;13.80;;;;;;;-7.63;100.00;92954.22;2104438;28;20051;-80
2022/03/06 03:26:14;;;;;;;22.23;12.80;;;;;;;-7.68;100.00;92955.16;2096043;28;20132;-78
2022/03/06 03:27:15;;;;;;;24.35;12.65;;;;;;;-7.60;100.00;92962.16;2112948;28;20039;-79
2022/03/06 03:28:16;;;;;;;21.48;12.45;;;;;;;-7.57;100.00;92960.03;2104276;28;20502;-77
2022/03/06 03:29:17;;;;;;;22.98;12.48;;;;;;;-7.72;100.00;92958.66;2091112;28;20032;-78
2022/03/06 03:30:20;;;;;;;27.38;13.40;;;;;;;-7.64;100.00;92950.09;2092141;28;20035;-81
2022/03/06 03:31:21;;;;;;;24.42;13.20;;;;;;;-7.62;100.00;92956.50;2084884;28;20025;-81
2022/03/06 03:32:22;;;;;;;24.15;13.02;;;;;;;-7.64;100.00;92950.09;2089741;28;20029;-81
2022/03/06 03:33:23;;;;;;;23.52;13.55;;;;;;;-7.73;100.00;92955.28;2095479;28;20083;-78
2022/03/06 03:34:24;;;;;;;25.25;12.77;;;;;;;-7.55;100.00;92955.28;2104223;28;20031;-82
2022/03/06 03:35:24;;;;;;;23.27;12.48;;;;;;;-7.62;100.00;92951.31;2095850;28;20046;-79
2022/03/06 03:36:25;;;;;;;20.67;11.80;;;;;;;-7.59;100.00;92947.38;2096436;28;20431;-80
2022/03/06 03:37:27;;;;;;;26.27;12.80;;;;;;;-7.68;100.00;92959.56;2088211;28;20032;-78
2022/03/06 03:38:28;;;;;;;25.38;12.55;;;;;;;-7.72;100.00;92956.06;2091153;28;20083;-77
2022/03/06 03:39:29;;;;;;;23.50;12.18;;;;;;;-7.69;100.00;92958.03;2081197;28;20025;-82
2022/03/06 03:40:30;;;;;;;25.85;12.02;;;;;;;-7.62;100.00;92958.34;2086114;28;20660;-77
2022/03/06 03:41:31;;;;;;;22.13;12.35;;;;;;;-7.65;100.00;92954.53;2094388;28;20036;-81
2022/03/06 03:42:32;;;;;;;22.48;12.13;;;;;;;-7.75;100.00;92956.66;2094001;28;20492;-80
2022/03/06 03:43:35;;;;;;;25.08;12.60;;;;;;;-7.80;100.00;92967.19;2094530;28;20033;-80
2022/03/06 03:44:36;;;;;;;24.60;13.07;;;;;;;-7.86;100.00;92959.56;2096091;28;20109;-78
2022/03/06 03:45:37;;;;;;;24.05;12.68;;;;;;;-7.75;100.00;92965.22;2095875;28;20466;-79
2022/03/06 03:46:38;;;;;;;25.05;12.57;;;;;;;-7.77;100.00;92959.56;2104204;28;20027;-80
2022/03/06 03:47:39;;;;;;;22.80;12.32;;;;;;;-7.80;100.00;92965.38;2094408;28;20024;-78
2022/03/06 03:48:40;;;;;;;23.60;12.68;;;;;;;-7.85;100.00;92962.94;2094935;28;20025;-80
2022/03/06 03:49:41;;;;;;;25.80;13.45;;;;;;;-7.83;100.00;92960.78;2095836;28;20104;-78
2022/03/06 03:50:42;;;;;;;23.15;12.85;;;;;;;-7.86;100.00;92959.56;2104159;28;20067;-78
2022/03/06 03:51:43;;;;;;;26.45;13.15;;;;;;;-7.89;100.00;92964.59;2087575;28;20116;-80
2022/03/06 03:52:44;;;;;;;26.45;12.30;;;;;;;-7.87;100.00;92963.22;2083148;28;20124;-78
2022/03/06 03:53:45;;;;;;;23.65;12.95;;;;;;;-7.85;100.00;92973.31;2087674;28;20470;-80
2022/03/06 03:54:46;;;;;;;24.90;13.23;;;;;;;-7.87;100.00;92958.03;2087691;28;20075;-80
2022/03/06 03:55:48;;;;;;;27.45;13.10;;;;;;;-7.97;100.00;92958.31;2096094;28;20026;-78
2022/03/06 03:56:49;;;;;;;23.58;12.27;;;;;;;-7.98;100.00;92961.22;2090272;28;20094;-82
2022/03/06 03:57:50;;;;;;;23.08;12.18;;;;;;;-7.94;100.00;92962.91;2102059;28;20500;-79
2022/03/06 03:58:51;;;;;;;24.98;13.18;;;;;;;-7.84;100.00;92956.66;2095622;28;20055;-81
2022/03/06 03:59:52;;;;;;;26.00;12.88;;;;;;;-7.93;100.00;92963.69;2095316;28;20111;-78
2022/03/06 04:00:55;;;;;;;24.38;13.13;;;;;;;-7.93;100.00;92955.91;2103246;28;20111;-78
2022/03/06 04:01:56;;;;;;;26.05;12.30;;;;;;;-7.96;100.00;92961.69;2112706;28;20051;-78
2022/03/06 04:02:57;;;;;;;22.80;12.68;;;;;;;-7.84;100.00;92956.66;2105247;28;20028;-80
2022/03/06 04:03:58;;;;;;;23.77;12.13;;;;;;;-7.85;100.00;92960.34;2095598;28;20028;-79
2022/03/06 04:04:59;;;;;;;27.77;13.48;;;;;;;-7.85;100.00;92960.34;2103600;28;20779;-82
2022/03/06 04:06:00;;;;;;;23.65;13.02;;;;;;;-7.88;100.00;92960.94;2101592;28;20035;-77
2022/03/06 04:07:01;;;;;;;25.38;12.13;;;;;;;-7.85;100.00;92960.34;2090914;28;20025;-81
2022/03/06 04:08:02;;;;;;;24.98;12.57;;;;;;;-7.77;100.00;92964.75;2094047;28;20025;-77
2022/03/06 04:09:03;;;;;;;26.23;12.70;;;;;;;-7.84;100.00;92961.84;2095639;28;20470;-80
2022/03/06 04:10:05;;;;;;;24.38;12.40;;;;;;;-7.83;100.00;92960.03;2091431;28;20460;-80
2022/03/06 04:11:06;;;;;;;26.08;13.50;;;;;;;-7.87;100.00;92958.03;2105677;28;20048;-80
2022/03/06 04:12:08;;;;;;;23.60;12.88;;;;;;;-7.85;100.00;92965.53;2104420;28;20047;-79
2022/03/06 04:13:09;;;;;;;25.90;13.13;;;;;;;-7.86;100.00;92966.56;2097650;28;20028;-81
2022/03/06 04:14:10;;;;;;;22.10;12.95;;;;;;;-7.99;100.00;92965.66;2105857;28;20020;-80
2022/03/06 04:15:11;;;;;;;25.90;13.23;;;;;;;-7.98;100.00;92969.00;2097659;28;20122;-79
2022/03/06 04:16:12;;;;;;;23.30;12.68;;;;;;;-7.89;100.00;92974.97;2089281;28;20760;-80
2022/03/06 04:17:13;;;;;;;22.48;12.82;;;;;;;-7.90;100.00;92981.19;2089462;28;20099;-77
2022/03/06 04:18:14;;;;;;;26.17;12.52;;;;;;;-7.87;100.00;92975.41;2097631;28;20457;-78
2022/03/06 04:19:15;;;;;;;23.13;12.85;;;;;;;-7.88;100.00;92982.44;2089273;28;20025;-81
2022/03/06 04:20:16;;;;;;;25.42;12.50;;;;;;;-7.91;100.00;92983.03;2087429;28;20474;-80
2022/03/06 04:21:17;;;;;;;23.95;12.07;;;;;;;-7.91;100.00;92987.47;2089332;28;20017;-80
2022/03/06 04:22:18;;;;;;;23.42;11.82;;;;;;;-7.98;100.00;92982.75;2105835;28;20454;-79
2022/03/06 04:23:19;;;;;;;24.48;13.30;;;;;;;-8.01;100.00;92998.91;2089134;28;20100;-80
2022/03/06 04:24:19;;;;;;;24.33;12.93;;;;;;;-8.00;100.00;92991.88;2088611;28;20520;-77
2022/03/06 04:25:21;;;;;;;22.83;12.00;;;;;;;-8.02;100.00;92987.00;2095368;28;20066;-81
2022/03/06 04:26:22;;;;;;;23.33;13.32;;;;;;;-7.89;100.00;92993.13;2113027;28;20023;-79
2022/03/06 04:27:23;;;;;;;27.40;13.52;;;;;;;-7.96;100.00;92990.97;2099553;28;20450;-77
2022/03/06 04:28:24;;;;;;;21.88;12.55;;;;;;;-7.82;100.00;92996.03;2097383;28;20174;-79
2022/03/06 04:29:25;;;;;;;25.77;12.68;;;;;;;-7.93;100.00;92984.44;2097400;28;20035;-78
2022/03/06 04:30:27;;;;;;;25.35;12.95;;;;;;;-7.92;100.00;92991.91;2087029;28;20458;-81
2022/03/06 04:31:28;;;;;;;22.75;12.52;;;;;;;-7.92;100.00;92993.72;2097365;28;20024;-79
2022/03/06 04:32:29;;;;;;;21.67;12.27;;;;;;;-7.98;100.00;92994.94;2105812;28;20024;-81
2022/03/06 04:33:30;;;;;;;26.52;13.35;;;;;;;-8.07;100.00;92996.75;2088962;28;20463;-81
2022/03/06 04:34:31;;;;;;;23.05;12.75;;;;;;;-7.99;100.00;92993.41;2090264;28;20124;-79
2022/03/06 04:35:32;;;;;;;24.58;12.82;;;;;;;-8.04;100.00;92999.50;2088926;28;20086;-80
2022/03/06 04:36:33;;;;;;;22.42;12.90;;;;;;;-8.09;100.00;93001.47;2095376;28;20029;-79
2022/03/06 04:37:34;;;;;;;25.63;13.75;;;;;;;-8.14;100.00;92994.59;2097233;28;20020;-81
2022/03/06 04:38:35;;;;;;;22.83;12.70;;;;;;;-8.21;100.00;92996.88;2097562;28;20534;-80
2022/03/06 04:39:36;;;;;;;24.13;13.23;;;;;;;-8.17;100.00;92995.97;2097276;28;20462;-78
2022/03/06 04:40:37;;;;;;;26.63;12.52;;;;;;;-8.12;100.00;92995.84;2084070;28;20124;-82
2022/03/06 04:41:38;;;;;;;24.10;13.55;;;;;;;-8.14;100.00;92995.38;2100826;28;20442;-78
2022/03/06 04:42:40;;;;;;;24.52;13.20;;;;;;;-8.14;100.00;93002.38;2105769;28;20812;-78